sensor_id;sensor_type;location;lat;lon;timestamp;pressure;altitude;pressure_sealevel;temperature;humidity
39129;BME280;24864;49.940;19.770;2022-12-18T00:02:21;78824.25;;;-147.98;100.00
39129;BME280;24864;49.940;19.770;2022-12-18T00:04:51;78826.34;;;-147.98;100.00
39129;BME280;24864;49.940;19.770;2022-12-18T00:07:19;78836.75;;;-147.98;100.00
39129;BME280;24864;49.940;19.770;2022-12-18T00:09:47;78832.56;;;-147.98;100.00
39129;BME280;24864;49.940;19.770;2022-12-18T00:12:15;78832.56;;;-147.98;100.00
39129;BME280;24864;49.940;19.770;2022-12-18T00:14:44;78826.34;;;-147.98;100.00
39129;BME280;24864;49.940;19.770;2022-12-18T00:17:12;78822.19;;;-147.98;100.00
39129;BME280;24864;49.940;19.770;2022-12-18T00:19:40;78830.50;;;-147.98;100.00
39129;BME280;24864;49.940;19.770;2022-12-18T00:22:09;78836.75;;;-147.98;100.00
39129;BME280;24864;49.940;19.770;2022-12-18T00:24:37;78836.75;;;-147.98;100.00
39129;BME280;24864;49.940;19.770;2022-12-18T00:27:05;78845.06;;;-147.98;100.00
39129;BME280;24864;49.940;19.770;2022-12-18T00:29:33;78840.91;;;-147.98;100.00
39129;BME280;24864;49.940;19.770;2022-12-18T00:32:01;78840.91;;;-147.98;100.00
39129;BME280;24864;49.940;19.770;2022-12-18T00:34:29;78836.75;;;-147.98;100.00
39129;BME280;24864;49.940;19.770;2022-12-18T00:36:57;78851.31;;;-147.98;100.00
39129;BME280;24864;49.940;19.770;2022-12-18T00:39:27;78861.69;;;-147.98;100.00
39129;BME280;24864;49.940;19.770;2022-12-18T00:41:55;78859.63;;;-147.98;100.00
39129;BME280;24864;49.940;19.770;2022-12-18T00:44:41;78863.78;;;-147.98;100.00
39129;BME280;24864;49.940;19.770;2022-12-18T00:47:09;78857.53;;;-147.98;100.00
39129;BME280;24864;49.940;19.770;2022-12-18T00:49:37;78845.06;;;-147.98;100.00
39129;BME280;24864;49.940;19.770;2022-12-18T00:52:04;78861.69;;;-147.98;100.00
39129;BME280;24864;49.940;19.770;2022-12-18T00:54:34;78870.03;;;-147.98;100.00
39129;BME280;24864;49.940;19.770;2022-12-18T00:57:02;78870.03;;;-147.98;100.00
39129;BME280;24864;49.940;19.770;2022-12-18T00:59:30;78851.31;;;-147.98;100.00
39129;BME280;24864;49.940;19.770;2022-12-18T01:01:58;78851.31;;;-147.98;100.00
39129;BME280;24864;49.940;19.770;2022-12-18T01:04:26;78840.91;;;-147.98;100.00
39129;BME280;24864;49.940;19.770;2022-12-18T01:06:54;78857.53;;;-147.98;100.00
39129;BME280;24864;49.940;19.770;2022-12-18T01:09:22;78861.69;;;-147.98;100.00
39129;BME280;24864;49.940;19.770;2022-12-18T01:11:52;78863.78;;;-147.98;100.00
39129;BME280;24864;49.940;19.770;2022-12-18T01:14:31;78857.53;;;-147.98;100.00
39129;BME280;24864;49.940;19.770;2022-12-18T01:16:59;78874.19;;;-147.98;100.00
39129;BME280;24864;49.940;19.770;2022-12-18T01:19:29;78888.75;;;-147.98;100.00
39129;BME280;24864;49.940;19.770;2022-12-18T01:21:58;78882.50;;;-147.98;100.00
39129;BME280;24864;49.940;19.770;2022-12-18T01:24:26;78886.66;;;-147.98;100.00
39129;BME280;24864;49.940;19.770;2022-12-18T01:26:55;78886.66;;;-147.98;100.00
39129;BME280;24864;49.940;19.770;2022-12-18T01:29:23;78884.59;;;-147.98;100.00
39129;BME280;24864;49.940;19.770;2022-12-18T01:31:54;78880.44;;;-147.98;100.00
39129;BME280;24864;49.940;19.770;2022-12-18T01:34:23;78870.03;;;-147.98;100.00
39129;BME280;24864;49.940;19.770;2022-12-18T01:36:51;78874.19;;;-147.98;100.00
39129;BME280;24864;49.940;19.770;2022-12-18T01:39:19;78903.31;;;-147.98;100.00
39129;BME280;24864;49.940;19.770;2022-12-18T01:41:48;78897.06;;;-147.98;100.00
39129;BME280;24864;49.940;19.770;2022-12-18T01:45:05;78884.59;;;-147.98;100.00
39129;BME280;24864;49.940;19.770;2022-12-18T01:47:36;78886.66;;;-147.98;100.00
39129;BME280;24864;49.940;19.770;2022-12-18T01:50:09;78886.66;;;-147.98;100.00
39129;BME280;24864;49.940;19.770;2022-12-18T01:52:38;78878.34;;;-147.98;100.00
39129;BME280;24864;49.940;19.770;2022-12-18T01:55:10;78870.03;;;-147.98;100.00
39129;BME280;24864;49.940;19.770;2022-12-18T01:57:39;78865.88;;;-147.98;100.00
39129;BME280;24864;49.940;19.770;2022-12-18T02:00:12;78867.94;;;-147.98;100.00
39129;BME280;24864;49.940;19.770;2022-12-18T02:02:41;78882.50;;;-147.98;100.00
39129;BME280;24864;49.940;19.770;2022-12-18T02:05:12;78886.66;;;-147.98;100.00
39129;BME280;24864;49.940;19.770;2022-12-18T02:07:49;78905.38;;;-147.98;100.00
39129;BME280;24864;49.940;19.770;2022-12-18T02:10:24;78903.31;;;-147.98;100.00
39129;BME280;24864;49.940;19.770;2022-12-18T02:12:59;78899.16;;;-147.98;100.00
39129;BME280;24864;49.940;19.770;2022-12-18T02:15:36;78919.94;;;-147.98;100.00
39129;BME280;24864;49.940;19.770;2022-12-18T02:18:10;78915.78;;;-147.98;100.00
39129;BME280;24864;49.940;19.770;2022-12-18T02:20:43;78932.44;;;-147.98;100.00
39129;BME280;24864;49.940;19.770;2022-12-18T02:23:22;78936.59;;;-147.98;100.00
39129;BME280;24864;49.940;19.770;2022-12-18T02:26:08;78932.44;;;-147.98;100.00
39129;BME280;24864;49.940;19.770;2022-12-18T02:28:42;78944.91;;;-147.98;100.00
39129;BME280;24864;49.940;19.770;2022-12-18T02:31:16;78938.69;;;-147.98;100.00
39129;BME280;24864;49.940;19.770;2022-12-18T02:33:46;78957.41;;;-147.98;100.00
39129;BME280;24864;49.940;19.770;2022-12-18T02:36:16;78928.28;;;-147.98;100.00
39129;BME280;24864;49.940;19.770;2022-12-18T02:38:45;78907.47;;;-147.98;100.00
39129;BME280;24864;49.940;19.770;2022-12-18T02:41:16;78913.72;;;-147.98;100.00
39129;BME280;24864;49.940;19.770;2022-12-18T02:43:47;78926.19;;;-147.98;100.00
39129;BME280;24864;49.940;19.770;2022-12-18T02:46:28;78907.47;;;-147.98;100.00
39129;BME280;24864;49.940;19.770;2022-12-18T02:49:04;78899.16;;;-147.98;100.00
39129;BME280;24864;49.940;19.770;2022-12-18T02:51:42;78901.22;;;-147.98;100.00
39129;BME280;24864;49.940;19.770;2022-12-18T02:54:22;78928.28;;;-147.98;100.00
39129;BME280;24864;49.940;19.770;2022-12-18T02:56:56;78944.91;;;-147.98;100.00
39129;BME280;24864;49.940;19.770;2022-12-18T02:59:30;78947.00;;;-147.98;100.00
39129;BME280;24864;49.940;19.770;2022-12-18T03:02:03;78949.06;;;-147.98;100.00
39129;BME280;24864;49.940;19.770;2022-12-18T03:04:37;78963.63;;;-147.98;100.00
39129;BME280;24864;49.940;19.770;2022-12-18T03:07:11;78940.75;;;-147.98;100.00
39129;BME280;24864;49.940;19.770;2022-12-18T03:09:45;78955.31;;;-147.98;100.00
39129;BME280;24864;49.940;19.770;2022-12-18T03:12:20;78949.06;;;-147.98;100.00
39129;BME280;24864;49.940;19.770;2022-12-18T03:14:56;78944.91;;;-147.98;100.00
39129;BME280;24864;49.940;19.770;2022-12-18T03:17:27;78940.75;;;-147.98;100.00
39129;BME280;24864;49.940;19.770;2022-12-18T03:20:02;78944.91;;;-147.98;100.00
39129;BME280;24864;49.940;19.770;2022-12-18T03:22:33;78949.06;;;-147.98;100.00
39129;BME280;24864;49.940;19.770;2022-12-18T03:25:05;78938.69;;;-147.98;100.00
39129;BME280;24864;49.940;19.770;2022-12-18T03:27:37;78919.94;;;-147.98;100.00
39129;BME280;24864;49.940;19.770;2022-12-18T03:30:10;78924.13;;;-147.98;100.00
39129;BME280;24864;49.940;19.770;2022-12-18T03:32:42;78940.75;;;-147.98;100.00
39129;BME280;24864;49.940;19.770;2022-12-18T03:35:14;78936.59;;;-147.98;100.00
39129;BME280;24864;49.940;19.770;2022-12-18T03:37:44;78953.25;;;-147.98;100.00
39129;BME280;24864;49.940;19.770;2022-12-18T03:40:12;78936.59;;;-147.98;100.00
39129;BME280;24864;49.940;19.770;2022-12-18T03:42:46;78955.31;;;-147.98;100.00
39129;BME280;24864;49.940;19.770;2022-12-18T03:45:21;78936.59;;;-147.98;100.00
39129;BME280;24864;49.940;19.770;2022-12-18T03:47:58;78936.59;;;-147.98;100.00
39129;BME280;24864;49.940;19.770;2022-12-18T03:50:35;78955.31;;;-147.98;100.00
39129;BME280;24864;49.940;19.770;2022-12-18T03:53:14;78949.06;;;-147.98;100.00
39129;BME280;24864;49.940;19.770;2022-12-18T03:55:45;78944.91;;;-147.98;100.00
39129;BME280;24864;49.940;19.770;2022-12-18T03:58:19;78957.41;;;-147.98;100.00
39129;BME280;24864;49.940;19.770;2022-12-18T04:00:49;78961.56;;;-147.98;100.00
39129;BME280;24864;49.940;19.770;2022-12-18T04:03:19;78963.63;;;-147.98;100.00
39129;BME280;24864;49.940;19.770;2022-12-18T04:05:54;78953.25;;;-147.98;100.00
39129;BME280;24864;49.940;19.770;2022-12-18T04:08:23;78963.63;;;-147.98;100.00
39129;BME280;24864;49.940;19.770;2022-12-18T04:10:52;78949.06;;;-147.98;100.00
39129;BME280;24864;49.940;19.770;2022-12-18T04:13:28;78957.41;;;-147.98;100.00
39129;BME280;24864;49.940;19.770;2022-12-18T04:15:56;78978.19;;;-147.98;100.00
39129;BME280;24864;49.940;19.770;2022-12-18T04:18:25;78978.19;;;-147.98;100.00
39129;BME280;24864;49.940;19.770;2022-12-18T04:20:53;78974.03;;;-147.98;100.00
39129;BME280;24864;49.940;19.770;2022-12-18T04:23:21;78978.19;;;-147.98;100.00
39129;BME280;24864;49.940;19.770;2022-12-18T04:25:49;78994.84;;;-147.98;100.00
39129;BME280;24864;49.940;19.770;2022-12-18T04:28:17;79001.09;;;-147.98;100.00
39129;BME280;24864;49.940;19.770;2022-12-18T04:30:47;78986.53;;;-147.98;100.00
39129;BME280;24864;49.940;19.770;2022-12-18T04:33:16;78978.19;;;-147.98;100.00
39129;BME280;24864;49.940;19.770;2022-12-18T04:35:44;78986.53;;;-147.98;100.00
39129;BME280;24864;49.940;19.770;2022-12-18T04:38:13;79019.81;;;-147.98;100.00
39129;BME280;24864;49.940;19.770;2022-12-18T04:40:40;79019.81;;;-147.98;100.00
39129;BME280;24864;49.940;19.770;2022-12-18T04:43:09;79013.56;;;-147.98;100.00
39129;BME280;24864;49.940;19.770;2022-12-18T04:45:37;79007.34;;;-147.98;100.00
39129;BME280;24864;49.940;19.770;2022-12-18T04:48:07;79013.56;;;-147.98;100.00
39129;BME280;24864;49.940;19.770;2022-12-18T04:50:36;79003.16;;;-147.98;100.00
39129;BME280;24864;49.940;19.770;2022-12-18T04:53:04;79015.66;;;-147.98;100.00
39129;BME280;24864;49.940;19.770;2022-12-18T04:55:32;79011.50;;;-147.98;100.00
39129;BME280;24864;49.940;19.770;2022-12-18T04:58:00;79030.22;;;-147.98;100.00
39129;BME280;24864;49.940;19.770;2022-12-18T05:00:28;79044.78;;;-147.98;100.00
39129;BME280;24864;49.940;19.770;2022-12-18T05:02:56;79040.63;;;-147.98;100.00
39129;BME280;24864;49.940;19.770;2022-12-18T05:05:25;79048.94;;;-147.98;100.00
39129;BME280;24864;49.940;19.770;2022-12-18T05:07:53;79048.94;;;-147.98;100.00
39129;BME280;24864;49.940;19.770;2022-12-18T05:10:21;79051.03;;;-147.98;100.00
39129;BME280;24864;49.940;19.770;2022-12-18T05:12:49;79044.78;;;-147.98;100.00
39129;BME280;24864;49.940;19.770;2022-12-18T05:15:28;79053.09;;;-147.98;100.00
39129;BME280;24864;49.940;19.770;2022-12-18T05:17:57;79044.78;;;-147.98;100.00
39129;BME280;24864;49.940;19.770;2022-12-18T05:20:26;79040.63;;;-147.98;100.00
39129;BME280;24864;49.940;19.770;2022-12-18T05:22:55;79057.25;;;-147.98;100.00
39129;BME280;24864;49.940;19.770;2022-12-18T05:25:23;79061.41;;;-147.98;100.00
39129;BME280;24864;49.940;19.770;2022-12-18T05:27:51;79048.94;;;-147.98;100.00
39129;BME280;24864;49.940;19.770;2022-12-18T05:30:19;79044.78;;;-147.98;100.00
39129;BME280;24864;49.940;19.770;2022-12-18T05:32:47;79065.59;;;-147.98;100.00
39129;BME280;24864;49.940;19.770;2022-12-18T05:35:15;79046.84;;;-147.98;100.00
39129;BME280;24864;49.940;19.770;2022-12-18T05:37:45;79057.25;;;-147.98;100.00
39129;BME280;24864;49.940;19.770;2022-12-18T05:40:13;79036.47;;;-147.98;100.00
39129;BME280;24864;49.940;19.770;2022-12-18T05:42:41;79053.09;;;-147.98;100.00
39129;BME280;24864;49.940;19.770;2022-12-18T05:45:09;79042.69;;;-147.98;100.00
39129;BME280;24864;49.940;19.770;2022-12-18T05:47:37;79082.22;;;-147.98;100.00
39129;BME280;24864;49.940;19.770;2022-12-18T05:50:06;79065.59;;;-147.98;100.00
39129;BME280;24864;49.940;19.770;2022-12-18T05:52:35;79055.19;;;-147.98;100.00
39129;BME280;24864;49.940;19.770;2022-12-18T05:55:05;79078.06;;;-147.98;100.00
39129;BME280;24864;49.940;19.770;2022-12-18T05:57:33;79084.31;;;-147.98;100.00
39129;BME280;24864;49.940;19.770;2022-12-18T06:00:01;79078.06;;;-147.98;100.00
39129;BME280;24864;49.940;19.770;2022-12-18T06:02:29;79082.22;;;-147.98;100.00
39129;BME280;24864;49.940;19.770;2022-12-18T06:04:57;79090.56;;;-147.98;100.00
39129;BME280;24864;49.940;19.770;2022-12-18T06:07:25;79086.38;;;-147.98;100.00
39129;BME280;24864;49.940;19.770;2022-12-18T06:09:53;79088.47;;;-147.98;100.00
39129;BME280;24864;49.940;19.770;2022-12-18T06:12:22;79098.88;;;-147.98;100.00
39129;BME280;24864;49.940;19.770;2022-12-18T06:14:50;79103.03;;;-147.98;100.00
39129;BME280;24864;49.940;19.770;2022-12-18T06:17:18;79113.44;;;-147.98;100.00
39129;BME280;24864;49.940;19.770;2022-12-18T06:19:46;79115.50;;;-147.98;100.00
39129;BME280;24864;49.940;19.770;2022-12-18T06:22:14;79082.22;;;-147.98;100.00
39129;BME280;24864;49.940;19.770;2022-12-18T06:24:43;79080.16;;;-147.98;100.00
39129;BME280;24864;49.940;19.770;2022-12-18T06:27:11;79061.41;;;-147.98;100.00
39129;BME280;24864;49.940;19.770;2022-12-18T06:29:41;79082.22;;;-147.98;100.00
39129;BME280;24864;49.940;19.770;2022-12-18T06:32:09;79084.31;;;-147.98;100.00
39129;BME280;24864;49.940;19.770;2022-12-18T06:34:37;79092.63;;;-147.98;100.00
39129;BME280;24864;49.940;19.770;2022-12-18T06:37:05;79098.88;;;-147.98;100.00
39129;BME280;24864;49.940;19.770;2022-12-18T06:39:33;79094.72;;;-147.98;100.00
39129;BME280;24864;49.940;19.770;2022-12-18T06:42:01;79086.38;;;-147.98;100.00
39129;BME280;24864;49.940;19.770;2022-12-18T06:44:30;79078.06;;;-147.98;100.00
39129;BME280;24864;49.940;19.770;2022-12-18T06:47:00;79098.88;;;-147.98;100.00
39129;BME280;24864;49.940;19.770;2022-12-18T06:49:28;79103.03;;;-147.98;100.00
39129;BME280;24864;49.940;19.770;2022-12-18T06:51:56;79096.78;;;-147.98;100.00
39129;BME280;24864;49.940;19.770;2022-12-18T06:54:24;79090.56;;;-147.98;100.00
39129;BME280;24864;49.940;19.770;2022-12-18T06:56:52;79105.13;;;-147.98;100.00
39129;BME280;24864;49.940;19.770;2022-12-18T06:59:20;79113.44;;;-147.98;100.00
39129;BME280;24864;49.940;19.770;2022-12-18T07:01:48;79105.13;;;-147.98;100.00
39129;BME280;24864;49.940;19.770;2022-12-18T07:04:17;79111.34;;;-147.98;100.00
39129;BME280;24864;49.940;19.770;2022-12-18T07:06:45;79115.50;;;-147.98;100.00
39129;BME280;24864;49.940;19.770;2022-12-18T07:09:13;79117.59;;;-147.98;100.00
39129;BME280;24864;49.940;19.770;2022-12-18T07:11:41;79111.34;;;-147.98;100.00
39129;BME280;24864;49.940;19.770;2022-12-18T07:14:09;79105.13;;;-147.98;100.00
39129;BME280;24864;49.940;19.770;2022-12-18T07:16:37;79103.03;;;-147.98;100.00
39129;BME280;24864;49.940;19.770;2022-12-18T07:19:05;79103.03;;;-147.98;100.00
39129;BME280;24864;49.940;19.770;2022-12-18T07:21:34;79094.72;;;-147.98;100.00
39129;BME280;24864;49.940;19.770;2022-12-18T07:24:03;79094.72;;;-147.98;100.00
39129;BME280;24864;49.940;19.770;2022-12-18T07:26:31;79103.03;;;-147.98;100.00
39129;BME280;24864;49.940;19.770;2022-12-18T07:28:59;79098.88;;;-147.98;100.00
39129;BME280;24864;49.940;19.770;2022-12-18T07:31:27;79094.72;;;-147.98;100.00
39129;BME280;24864;49.940;19.770;2022-12-18T07:33:55;79096.78;;;-147.98;100.00
39129;BME280;24864;49.940;19.770;2022-12-18T07:36:23;79115.50;;;-147.98;100.00
39129;BME280;24864;49.940;19.770;2022-12-18T07:38:53;79115.50;;;-147.98;100.00
39129;BME280;24864;49.940;19.770;2022-12-18T07:41:21;79107.19;;;-147.98;100.00
39129;BME280;24864;49.940;19.770;2022-12-18T07:43:49;79098.88;;;-147.98;100.00
39129;BME280;24864;49.940;19.770;2022-12-18T07:46:18;79098.88;;;-147.98;100.00
39129;BME280;24864;49.940;19.770;2022-12-18T07:48:46;79086.38;;;-147.98;100.00
39129;BME280;24864;49.940;19.770;2022-12-18T07:51:16;79090.56;;;-147.98;100.00
39129;BME280;24864;49.940;19.770;2022-12-18T07:53:44;79086.38;;;-147.98;100.00
39129;BME280;24864;49.940;19.770;2022-12-18T07:56:19;79082.22;;;-147.98;100.00
39129;BME280;24864;49.940;19.770;2022-12-18T07:58:54;79082.22;;;-147.98;100.00
39129;BME280;24864;49.940;19.770;2022-12-18T08:01:22;79061.41;;;-147.98;100.00
39129;BME280;24864;49.940;19.770;2022-12-18T08:03:50;79061.41;;;-147.98;100.00
39129;BME280;24864;49.940;19.770;2022-12-18T08:06:19;79061.41;;;-147.98;100.00
39129;BME280;24864;49.940;19.770;2022-12-18T08:08:51;79053.09;;;-147.98;100.00
39129;BME280;24864;49.940;19.770;2022-12-18T08:11:22;79040.63;;;-147.98;100.00
39129;BME280;24864;49.940;19.770;2022-12-18T08:13:50;79046.84;;;-147.98;100.00
39129;BME280;24864;49.940;19.770;2022-12-18T08:16:19;79034.38;;;-147.98;100.00
39129;BME280;24864;49.940;19.770;2022-12-18T08:18:48;79030.22;;;-147.98;100.00
39129;BME280;24864;49.940;19.770;2022-12-18T08:21:18;79015.66;;;-147.98;100.00
39129;BME280;24864;49.940;19.770;2022-12-18T08:23:48;79011.50;;;-147.98;100.00
39129;BME280;24864;49.940;19.770;2022-12-18T08:26:18;79003.16;;;-147.98;100.00
39129;BME280;24864;49.940;19.770;2022-12-18T08:28:48;78999.00;;;-147.98;100.00
39129;BME280;24864;49.940;19.770;2022-12-18T08:31:17;78999.00;;;-147.98;100.00
39129;BME280;24864;49.940;19.770;2022-12-18T08:33:45;78990.69;;;-147.98;100.00
39129;BME280;24864;49.940;19.770;2022-12-18T08:36:16;78986.53;;;-147.98;100.00
39129;BME280;24864;49.940;19.770;2022-12-18T08:38:44;78976.13;;;-147.98;100.00
39129;BME280;24864;49.940;19.770;2022-12-18T08:41:15;78974.03;;;-147.98;100.00
39129;BME280;24864;49.940;19.770;2022-12-18T08:43:44;78971.97;;;-147.98;100.00
39129;BME280;24864;49.940;19.770;2022-12-18T08:46:36;78969.88;;;-147.98;100.00
39129;BME280;24864;49.940;19.770;2022-12-18T08:49:05;78971.97;;;-147.98;100.00
39129;BME280;24864;49.940;19.770;2022-12-18T08:51:34;78980.28;;;-147.98;100.00
39129;BME280;24864;49.940;19.770;2022-12-18T08:54:03;78978.19;;;-147.98;100.00
39129;BME280;24864;49.940;19.770;2022-12-18T08:56:33;78982.38;;;-147.98;100.00
39129;BME280;24864;49.940;19.770;2022-12-18T08:59:01;78974.03;;;-147.98;100.00
39129;BME280;24864;49.940;19.770;2022-12-18T09:01:29;78965.72;;;-147.98;100.00
39129;BME280;24864;49.940;19.770;2022-12-18T09:03:59;78961.56;;;-147.98;100.00
39129;BME280;24864;49.940;19.770;2022-12-18T09:06:27;78944.91;;;-147.98;100.00
39129;BME280;24864;49.940;19.770;2022-12-18T09:08:55;78940.75;;;-147.98;99.49
39129;BME280;24864;49.940;19.770;2022-12-18T09:11:25;78953.25;;;-147.98;98.65
39129;BME280;24864;49.940;19.770;2022-12-18T09:13:55;78940.75;;;-147.98;98.97
39129;BME280;24864;49.940;19.770;2022-12-18T09:16:24;78932.44;;;-147.98;99.04
39129;BME280;24864;49.940;19.770;2022-12-18T09:18:59;78938.69;;;-147.98;97.54
39129;BME280;24864;49.940;19.770;2022-12-18T09:21:30;78940.75;;;-147.98;98.07
39129;BME280;24864;49.940;19.770;2022-12-18T09:24:03;78932.44;;;-147.98;98.32
39129;BME280;24864;49.940;19.770;2022-12-18T09:26:35;78949.06;;;-147.98;96.42
39129;BME280;24864;49.940;19.770;2022-12-18T09:29:03;78961.56;;;-147.98;97.78
39129;BME280;24864;49.940;19.770;2022-12-18T09:31:31;78949.06;;;-147.98;97.59
39129;BME280;24864;49.940;19.770;2022-12-18T09:34:00;78944.91;;;-147.98;97.96
39129;BME280;24864;49.940;19.770;2022-12-18T09:36:28;78940.75;;;-147.98;97.74
39129;BME280;24864;49.940;19.770;2022-12-18T09:38:56;78928.28;;;-147.98;97.98
39129;BME280;24864;49.940;19.770;2022-12-18T09:41:41;78911.63;;;-147.98;97.92
39129;BME280;24864;49.940;19.770;2022-12-18T09:44:18;78890.81;;;-147.98;96.96
39129;BME280;24864;49.940;19.770;2022-12-18T09:46:53;78874.19;;;-147.98;97.11
39129;BME280;24864;49.940;19.770;2022-12-18T09:49:28;78853.38;;;-147.98;96.77
39129;BME280;24864;49.940;19.770;2022-12-18T09:52:02;78849.22;;;-147.98;94.09
39129;BME280;24864;49.940;19.770;2022-12-18T09:54:34;78865.88;;;-147.98;93.72
39129;BME280;24864;49.940;19.770;2022-12-18T09:57:03;78865.88;;;-147.98;93.24
39129;BME280;24864;49.940;19.770;2022-12-18T09:59:35;78853.38;;;-147.98;93.97
39129;BME280;24864;49.940;19.770;2022-12-18T10:02:14;78867.94;;;-147.98;93.45
39129;BME280;24864;49.940;19.770;2022-12-18T10:04:50;78824.25;;;-147.98;92.56
39129;BME280;24864;49.940;19.770;2022-12-18T10:07:26;78772.25;;;-147.98;90.66
39129;BME280;24864;49.940;19.770;2022-12-18T10:10:02;78726.47;;;-147.98;86.87
39129;BME280;24864;49.940;19.770;2022-12-18T10:12:39;78726.47;;;-147.98;87.16
39129;BME280;24864;49.940;19.770;2022-12-18T10:15:16;78741.03;;;-147.98;88.36
39129;BME280;24864;49.940;19.770;2022-12-18T10:17:51;78697.34;;;-147.98;86.11
39129;BME280;24864;49.940;19.770;2022-12-18T10:20:30;78666.16;;;-147.98;84.70
39129;BME280;24864;49.940;19.770;2022-12-18T10:23:03;78703.59;;;-147.98;85.99
39129;BME280;24864;49.940;19.770;2022-12-18T10:25:36;78672.38;;;-147.98;85.10
39129;BME280;24864;49.940;19.770;2022-12-18T10:28:11;78628.72;;;-147.98;83.77
39129;BME280;24864;49.940;19.770;2022-12-18T10:30:40;78591.25;;;-147.98;84.35
39129;BME280;24864;49.940;19.770;2022-12-18T10:33:11;78528.84;;;-147.98;82.82
39129;BME280;24864;49.940;19.770;2022-12-18T10:35:42;78481.00;;;-147.98;79.79
39129;BME280;24864;49.940;19.770;2022-12-18T10:38:22;78439.41;;;-147.98;76.68
39129;BME280;24864;49.940;19.770;2022-12-18T10:40:52;78418.59;;;-147.98;75.77
39129;BME280;24864;49.940;19.770;2022-12-18T10:43:23;78470.59;;;-147.98;74.00
39129;BME280;24864;49.940;19.770;2022-12-18T10:46:05;78456.06;;;-147.98;75.58
39129;BME280;24864;49.940;19.770;2022-12-18T10:48:48;78462.28;;;-147.98;76.19
39129;BME280;24864;49.940;19.770;2022-12-18T10:51:23;78422.75;;;-147.98;77.52
39129;BME280;24864;49.940;19.770;2022-12-18T10:53:56;78408.22;;;-147.98;75.42
39129;BME280;24864;49.940;19.770;2022-12-18T10:56:26;78399.88;;;-147.98;75.77
39129;BME280;24864;49.940;19.770;2022-12-18T10:58:58;78389.47;;;-147.98;72.86
39129;BME280;24864;49.940;19.770;2022-12-18T11:01:26;78374.91;;;-147.98;87.61
39129;BME280;24864;49.940;19.770;2022-12-18T11:04:01;78437.31;;;-147.98;75.97
39129;BME280;24864;49.940;19.770;2022-12-18T11:06:32;78487.25;;;-147.98;75.14
39129;BME280;24864;49.940;19.770;2022-12-18T11:09:03;78474.78;;;-147.98;80.45
39129;BME280;24864;49.940;19.770;2022-12-18T11:11:41;78557.97;;;-147.98;80.66
39129;BME280;24864;49.940;19.770;2022-12-18T11:14:21;78520.53;;;-147.98;79.33
39129;BME280;24864;49.940;19.770;2022-12-18T11:16:50;78591.25;;;-147.98;80.03
39129;BME280;24864;49.940;19.770;2022-12-18T11:19:39;78609.97;;;-147.98;80.83
39129;BME280;24864;49.940;19.770;2022-12-18T11:22:20;78620.38;;;-147.98;82.47
39129;BME280;24864;49.940;19.770;2022-12-18T11:24:54;78612.06;;;-147.98;83.26
39129;BME280;24864;49.940;19.770;2022-12-18T11:27:47;78664.06;;;-147.98;83.78
39129;BME280;24864;49.940;19.770;2022-12-18T11:30:22;78705.69;;;-147.98;85.61
39129;BME280;24864;49.940;19.770;2022-12-18T11:32:54;78695.28;;;-147.98;86.46
39129;BME280;24864;49.940;19.770;2022-12-18T11:35:32;78686.94;;;-147.98;87.30
39129;BME280;24864;49.940;19.770;2022-12-18T11:38:17;78684.88;;;-147.98;87.14
39129;BME280;24864;49.940;19.770;2022-12-18T11:40:49;78678.63;;;-147.98;86.44
39129;BME280;24864;49.940;19.770;2022-12-18T11:43:25;78701.50;;;-147.98;86.83
39129;BME280;24864;49.940;19.770;2022-12-18T11:45:59;78691.13;;;-147.98;95.23
39129;BME280;24864;49.940;19.770;2022-12-18T11:48:32;78736.88;;;-147.98;88.90
39129;BME280;24864;49.940;19.770;2022-12-18T11:51:02;78761.84;;;-147.98;90.11
39129;BME280;24864;49.940;19.770;2022-12-18T11:53:33;78778.50;;;-147.98;90.38
39129;BME280;24864;49.940;19.770;2022-12-18T11:56:19;78795.13;;;-147.98;90.50
39129;BME280;24864;49.940;19.770;2022-12-18T11:58:56;78786.81;;;-147.98;90.63
39129;BME280;24864;49.940;19.770;2022-12-18T12:01:39;78786.81;;;-147.98;90.63
39129;BME280;24864;49.940;19.770;2022-12-18T12:04:30;78774.31;;;-147.98;90.66
39129;BME280;24864;49.940;19.770;2022-12-18T12:07:16;78782.66;;;-147.98;89.40
39129;BME280;24864;49.940;19.770;2022-12-18T12:09:54;78782.66;;;-147.98;89.54
39129;BME280;24864;49.940;19.770;2022-12-18T12:12:32;78811.78;;;-147.98;89.50
39129;BME280;24864;49.940;19.770;2022-12-18T12:15:23;78805.53;;;-147.98;90.91
39129;BME280;24864;49.940;19.770;2022-12-18T12:17:55;78790.97;;;-147.98;90.51
39129;BME280;24864;49.940;19.770;2022-12-18T12:20:36;78803.44;;;-147.98;89.68
39129;BME280;24864;49.940;19.770;2022-12-18T12:23:12;78805.53;;;-147.98;89.99
39129;BME280;24864;49.940;19.770;2022-12-18T12:25:46;78795.13;;;-147.98;91.03
39129;BME280;24864;49.940;19.770;2022-12-18T12:28:28;78828.41;;;-147.98;91.37
39129;BME280;24864;49.940;19.770;2022-12-18T12:31:04;78834.66;;;-147.98;91.76
39129;BME280;24864;49.940;19.770;2022-12-18T12:33:42;78865.88;;;-147.98;91.60
39129;BME280;24864;49.940;19.770;2022-12-18T12:36:29;78882.50;;;-147.98;92.97
39129;BME280;24864;49.940;19.770;2022-12-18T12:39:07;78915.78;;;-147.98;93.39
39129;BME280;24864;49.940;19.770;2022-12-18T12:41:38;78932.44;;;-147.98;94.14
39129;BME280;24864;49.940;19.770;2022-12-18T12:44:29;78953.25;;;-147.98;95.30
39129;BME280;24864;49.940;19.770;2022-12-18T12:47:01;78969.88;;;-147.98;96.14